Time;durP1;ratioP1;P1;durP2;ratioP2;P2;SDS_P1;SDS_P2;PMS_P1;PMS_P2;Temp;Humidity;BMP_temperature;BMP_pressure;BME280_temperature;BME280_humidity;BME280_pressure;Samples;Min_cycle;Max_cycle;Signal;HPM_P1;HPM_P2
2022/03/13 00:00:11;;;;;;;22.02;11.00;;;;;;;5.97;22.62;101673.91;5011690;28;20124;-72
2022/03/13 00:02:45;;;;;;;24.92;11.10;;;;;;;5.92;22.81;101669.88;5015802;28;20038;-74
2022/03/13 00:05:16;;;;;;;27.27;11.82;;;;;;;6.15;22.92;101660.31;4997565;28;20053;-73
2022/03/13 00:07:44;;;;;;;27.63;12.00;;;;;;;5.73;23.01;101660.53;5015453;28;20056;-74
2022/03/13 00:10:12;;;;;;;32.03;12.82;;;;;;;6.34;22.48;101654.53;5014087;28;20486;-73
2022/03/13 00:12:39;;;;;;;27.77;12.68;;;;;;;6.63;22.09;101653.28;5015589;28;20061;-74
2022/03/13 00:15:09;;;;;;;31.08;12.85;;;;;;;5.90;22.69;101664.66;5009629;28;20132;-74
2022/03/13 00:17:35;;;;;;;24.55;11.60;;;;;;;5.88;22.88;101652.44;5015176;28;20045;-74
2022/03/13 00:20:04;;;;;;;26.38;12.10;;;;;;;6.23;22.15;101658.78;5014808;28;20144;-72
2022/03/13 00:22:32;;;;;;;30.77;12.57;;;;;;;6.28;22.60;101654.97;5014822;28;20069;-74
2022/03/13 00:24:59;;;;;;;31.88;12.50;;;;;;;6.55;22.05;101655.66;5012056;28;20053;-73
2022/03/13 00:27:31;;;;;;;26.83;11.10;;;;;;;6.27;22.15;101656.78;4999166;28;20136;-73
2022/03/13 00:29:58;;;;;;;26.00;11.80;;;;;;;6.14;22.36;101659.41;5027513;28;20061;-73
2022/03/13 00:32:25;;;;;;;26.90;11.90;;;;;;;6.20;22.22;101647.50;5015608;28;20072;-73
2022/03/13 00:34:51;;;;;;;25.85;12.27;;;;;;;6.12;22.46;101644.53;5026422;28;20060;-73
2022/03/13 00:37:18;;;;;;;21.38;11.68;;;;;;;6.13;22.55;101648.88;5031600;28;20077;-74
2022/03/13 00:39:47;;;;;;;28.13;12.45;;;;;;;6.17;22.39;101651.22;5034590;28;20050;-72
2022/03/13 00:42:13;;;;;;;26.83;12.55;;;;;;;6.13;22.63;101648.88;5033590;28;20144;-72
2022/03/13 00:44:39;;;;;;;26.95;11.93;;;;;;;6.18;22.49;101652.94;5034715;28;20045;-73
2022/03/13 00:47:06;;;;;;;28.02;12.57;;;;;;;5.77;23.22;101648.69;5034304;28;20067;-73
2022/03/13 00:49:33;;;;;;;26.73;12.30;;;;;;;5.79;22.84;101650.41;5035268;28;20136;-74
2022/03/13 00:52:01;;;;;;;25.52;11.25;;;;;;;6.09;22.49;101645.59;5034812;28;20053;-74
2022/03/13 00:54:28;;;;;;;29.35;12.25;;;;;;;5.82;22.88;101653.69;5034493;28;20061;-74
2022/03/13 00:56:55;;;;;;;25.15;11.25;;;;;;;5.85;22.94;101655.31;5034114;28;20099;-73
2022/03/13 00:59:22;;;;;;;27.42;11.88;;;;;;;5.71;23.09;101643.78;5034688;28;20485;-73
2022/03/13 01:01:49;;;;;;;27.35;12.35;;;;;;;5.47;23.00;101650.78;5034490;28;20183;-74
2022/03/13 01:04:16;;;;;;;26.20;11.77;;;;;;;5.45;23.11;101650.03;5029045;28;20485;-73
2022/03/13 01:06:46;;;;;;;31.13;11.50;;;;;;;5.68;23.06;101651.97;5034288;28;20046;-74
2022/03/13 01:09:12;;;;;;;33.08;12.00;;;;;;;4.89;23.42;101652.03;5033599;28;20115;-73
2022/03/13 01:11:39;;;;;;;29.50;11.18;;;;;;;5.18;23.13;101648.31;5033236;28;20076;-73
2022/03/13 01:14:08;;;;;;;28.85;11.00;;;;;;;5.13;23.34;101647.75;5033276;28;20041;-72
2022/03/13 01:16:40;;;;;;;22.77;11.07;;;;;;;5.33;22.95;101648.22;5033518;28;20398;-73
2022/03/13 01:19:07;;;;;;;25.48;12.50;;;;;;;5.34;22.76;101640.13;5034257;28;20057;-73
2022/03/13 01:21:38;;;;;;;24.83;11.13;;;;;;;5.21;23.06;101637.47;5024014;28;20528;-73
2022/03/13 01:24:07;;;;;;;24.20;11.27;;;;;;;5.27;22.79;101647.66;5030269;28;20077;-73
2022/03/13 01:26:36;;;;;;;25.90;10.45;;;;;;;4.92;23.01;101630.56;4993983;28;20487;-72
2022/03/13 01:29:09;;;;;;;19.88;9.98;;;;;;;4.76;23.00;101636.88;5005356;28;20187;-73
2022/03/13 01:31:38;;;;;;;25.33;10.85;;;;;;;4.51;23.33;101647.38;5032647;28;20067;-73
2022/03/13 01:34:11;;;;;;;19.10;9.20;;;;;;;4.21;23.93;101640.38;5033924;28;20128;-73
2022/03/13 01:36:38;;;;;;;22.13;9.50;;;;;;;4.67;23.53;101637.47;5033252;28;20092;-72
2022/03/13 01:39:06;;;;;;;24.27;10.95;;;;;;;4.69;23.20;101640.03;5033429;28;20045;-72
2022/03/13 01:41:34;;;;;;;24.95;10.27;;;;;;;4.71;23.24;101646.94;5023747;28;20065;-72
2022/03/13 01:44:01;;;;;;;27.73;10.10;;;;;;;5.31;22.64;101642.13;5033968;28;20096;-73
2022/03/13 01:46:28;;;;;;;25.90;11.40;;;;;;;5.16;22.40;101638.72;5033282;28;20057;-73
2022/03/13 01:48:59;;;;;;;28.05;10.73;;;;;;;4.38;23.45;101636.66;5033809;28;20462;-72
2022/03/13 01:51:26;;;;;;;25.50;10.35;;;;;;;4.45;23.30;101637.13;5013167;28;20068;-73
2022/03/13 01:53:56;;;;;;;24.83;10.32;;;;;;;4.61;23.17;101642.34;5014143;28;20046;-72
2022/03/13 01:56:23;;;;;;;30.02;11.82;;;;;;;4.46;23.46;101639.72;5013569;28;20053;-73
2022/03/13 01:58:52;;;;;;;24.95;10.68;;;;;;;4.53;23.35;101635.72;5013133;28;20046;-73
2022/03/13 02:01:20;;;;;;;25.00;10.40;;;;;;;4.64;23.43;101637.66;5013083;28;20069;-74
2022/03/13 02:03:47;;;;;;;25.73;10.70;;;;;;;4.60;23.38;101633.50;5013633;28;20069;-74
2022/03/13 02:09:50;;;;;;;23.52;10.25;;;;;;;4.44;23.96;101630.97;5012983;28;20543;-73
2022/03/13 02:12:20;;;;;;;27.83;10.95;;;;;;;4.19;23.74;101623.69;5013936;28;20061;-73
2022/03/13 02:14:49;;;;;;;27.10;10.30;;;;;;;4.26;23.54;101630.31;5012898;28;20491;-74
2022/03/13 02:17:27;;;;;;;27.55;11.65;;;;;;;3.95;24.39;101627.88;5012074;28;20115;-72
2022/03/13 02:19:55;;;;;;;25.30;9.70;;;;;;;3.98;24.16;101625.88;5013269;28;20449;-72
2022/03/13 02:22:22;;;;;;;28.92;10.77;;;;;;;3.65;24.77;101620.84;5012738;28;20100;-72
2022/03/13 02:24:50;;;;;;;25.25;11.23;;;;;;;3.68;24.81;101623.31;5013137;28;20080;-73
2022/03/13 02:27:21;;;;;;;24.15;10.70;;;;;;;3.40;25.22;101621.47;5020570;28;20077;-71
2022/03/13 02:29:48;;;;;;;25.20;10.48;;;;;;;3.28;25.17;101614.25;5033012;28;20053;-72
2022/03/13 02:32:14;;;;;;;26.38;11.75;;;;;;;3.17;25.54;101625.50;5031798;28;20073;-72
2022/03/13 02:34:42;;;;;;;32.28;11.30;;;;;;;3.47;25.41;101619.28;5032635;28;20064;-71
2022/03/13 02:37:19;;;;;;;29.00;12.23;;;;;;;3.13;25.57;101629.25;5031761;28;20053;-72
2022/03/13 02:39:46;;;;;;;24.90;11.63;;;;;;;3.44;25.81;101622.13;5032226;28;20099;-71
2022/03/13 02:42:12;;;;;;;29.77;12.73;;;;;;;2.98;26.35;101635.44;5032227;28;20137;-72
2022/03/13 02:44:38;;;;;;;27.52;12.43;;;;;;;2.95;26.38;101635.63;5032461;28;20454;-72
2022/03/13 02:47:06;;;;;;;25.92;11.75;;;;;;;2.87;26.53;101634.28;5031969;28;20541;-72
2022/03/13 02:49:33;;;;;;;28.65;12.30;;;;;;;2.65;26.65;101634.66;5032211;28;20128;-72
2022/03/13 02:52:03;;;;;;;25.60;11.98;;;;;;;2.81;26.75;101623.16;5031948;28;20045;-72
2022/03/13 02:54:30;;;;;;;28.55;11.48;;;;;;;2.49;27.24;101632.94;5031918;28;20053;-72
2022/03/13 02:56:58;;;;;;;31.85;13.55;;;;;;;2.58;27.40;101632.41;5031973;28;20083;-72
2022/03/13 02:59:25;;;;;;;26.67;12.85;;;;;;;2.74;27.44;101627.97;5032922;28;20049;-72
2022/03/13 03:01:52;;;;;;;36.47;12.77;;;;;;;3.00;27.14;101626.47;5032127;28;20486;-72
2022/03/13 03:04:24;;;;;;;35.40;13.27;;;;;;;2.29;27.79;101629.59;5032626;28;20335;-72
2022/03/13 03:06:54;;;;;;;31.75;12.95;;;;;;;2.59;27.90;101629.69;5032908;28;20053;-73
2022/03/13 03:09:21;;;;;;;34.58;12.43;;;;;;;2.68;27.86;101628.31;5031354;28;20077;-72
2022/03/13 03:11:48;;;;;;;33.53;12.60;;;;;;;2.14;28.63;101626.00;5032288;28;20450;-71
2022/03/13 03:14:15;;;;;;;31.58;12.07;;;;;;;2.48;28.40;101628.56;5031954;28;20136;-71
2022/03/13 03:16:43;;;;;;;29.42;12.05;;;;;;;2.29;28.30;101628.75;5030859;28;20099;-71
2022/03/13 03:19:10;;;;;;;41.35;13.45;;;;;;;1.94;28.68;101635.00;5029980;28;20080;-71
2022/03/13 03:21:38;;;;;;;32.78;12.32;;;;;;;2.21;28.35;101629.16;5031839;28;20069;-71
2022/03/13 03:24:11;;;;;;;29.83;11.98;;;;;;;1.85;28.70;101635.47;5028177;28;20080;-73
2022/03/13 03:26:38;;;;;;;30.05;12.93;;;;;;;2.44;28.08;101630.53;5030694;28;20059;-71
2022/03/13 03:29:04;;;;;;;28.83;11.43;;;;;;;2.29;28.32;101626.94;5030273;28;20478;-72
2022/03/13 03:31:31;;;;;;;31.83;12.45;;;;;;;2.31;28.37;101624.22;5031276;28;20068;-72
2022/03/13 03:33:57;;;;;;;30.67;12.65;;;;;;;2.27;27.97;101626.19;5031715;28;20053;-72
2022/03/13 03:36:24;;;;;;;31.63;12.63;;;;;;;2.28;27.90;101624.41;5031726;28;20051;-71
2022/03/13 03:38:50;;;;;;;32.40;12.55;;;;;;;2.37;27.40;101619.44;5031822;28;20077;-73
2022/03/13 03:41:17;;;;;;;28.38;12.38;;;;;;;2.55;27.11;101622.88;5031093;28;20601;-72
2022/03/13 03:43:43;;;;;;;29.55;12.25;;;;;;;2.25;27.53;101624.56;5030795;28;20133;-72
2022/03/13 03:46:12;;;;;;;25.15;11.82;;;;;;;2.60;26.81;101614.66;5031784;28;20115;-72
2022/03/13 03:48:38;;;;;;;24.45;10.63;;;;;;;2.56;26.78;101618.41;5031363;28;20065;-74
2022/03/13 03:51:05;;;;;;;29.90;12.98;;;;;;;2.80;26.05;101609.06;5014131;28;20568;-72
2022/03/13 03:53:31;;;;;;;32.78;12.27;;;;;;;2.21;27.13;101612.44;5031716;28;20553;-73
2022/03/13 03:55:58;;;;;;;28.52;12.18;;;;;;;2.35;27.07;101623.97;5031671;28;20054;-72
2022/03/13 03:58:24;;;;;;;34.42;11.85;;;;;;;2.36;27.11;101627.47;5032507;28;20069;-72
2022/03/13 04:00:51;;;;;;;28.05;10.90;;;;;;;2.23;27.11;101619.34;5014391;28;20538;-72
2022/03/13 04:03:17;;;;;;;31.23;12.30;;;;;;;2.72;26.59;101624.56;5031537;28;20107;-72
2022/03/13 04:05:44;;;;;;;31.05;13.05;;;;;;;2.89;26.28;101621.81;5031120;28;20084;-72
2022/03/13 04:08:10;;;;;;;31.67;11.38;;;;;;;2.99;25.99;101622.09;5026816;28;20053;-72
2022/03/13 04:10:37;;;;;;;26.02;11.25;;;;;;;2.54;26.14;101620.28;5030873;28;20469;-72
2022/03/13 04:13:04;;;;;;;31.80;11.80;;;;;;;2.44;26.59;101619.94;5030384;28;20544;-72
2022/03/13 04:15:30;;;;;;;28.13;11.82;;;;;;;2.31;26.75;101619.78;5029973;28;20125;-71
2022/03/13 04:17:57;;;;;;;25.77;11.43;;;;;;;2.36;27.12;101622.16;5030766;28;20056;-72
2022/03/13 04:20:24;;;;;;;32.40;12.13;;;;;;;2.63;26.36;101614.47;5027492;28;20080;-71
2022/03/13 04:22:51;;;;;;;27.77;11.60;;;;;;;2.84;26.02;101618.53;5011204;28;20050;-72
2022/03/13 04:25:17;;;;;;;28.02;11.75;;;;;;;2.38;26.49;101621.16;5011071;28;20451;-72
2022/03/13 04:27:44;;;;;;;27.50;10.70;;;;;;;2.63;25.84;101619.78;5011769;28;20129;-72
2022/03/13 04:30:11;;;;;;;26.63;11.45;;;;;;;2.68;26.13;101615.06;5011945;28;20068;-73
2022/03/13 04:32:37;;;;;;;29.48;10.57;;;;;;;2.70;26.09;101610.53;5011279;28;20076;-72
2022/03/13 04:35:04;;;;;;;29.83;11.02;;;;;;;2.70;25.82;101613.19;5010891;28;20054;-72
2022/03/13 04:37:31;;;;;;;26.20;11.05;;;;;;;2.20;26.84;101627.47;5011357;28;20097;-72
2022/03/13 04:39:58;;;;;;;26.92;11.63;;;;;;;2.42;26.15;101622.69;5006172;28;20108;-72
2022/03/13 04:42:24;;;;;;;26.40;11.43;;;;;;;2.54;26.16;101618.47;5010908;28;20100;-72
2022/03/13 04:44:52;;;;;;;26.45;11.00;;;;;;;2.60;25.75;101623.44;5010680;28;20045;-72
2022/03/13 04:47:18;;;;;;;28.02;11.80;;;;;;;2.97;25.69;101629.31;5014005;28;20554;-72
2022/03/13 04:49:44;;;;;;;26.77;10.60;;;;;;;2.87;25.05;101623.66;5014092;28;20073;-72
2022/03/13 04:52:13;;;;;;;27.42;11.15;;;;;;;3.03;25.01;101628.06;5015108;28;20049;-72
2022/03/13 04:54:39;;;;;;;25.02;10.70;;;;;;;2.82;25.54;101625.75;5014308;28;20061;-72
2022/03/13 04:57:06;;;;;;;28.80;11.77;;;;;;;2.81;25.43;101625.81;5014468;28;20077;-71
2022/03/13 04:59:32;;;;;;;29.42;11.63;;;;;;;3.02;25.08;101627.22;5009524;28;20057;-72
2022/03/13 05:02:00;;;;;;;29.27;11.80;;;;;;;3.07;25.23;101626.97;4996587;28;20054;-71
2022/03/13 05:04:26;;;;;;;33.97;11.45;;;;;;;2.71;25.37;101624.63;4994925;28;20046;-71
2022/03/13 05:06:53;;;;;;;26.98;11.10;;;;;;;3.18;24.75;101627.19;5011517;28;20117;-72
2022/03/13 05:09:19;;;;;;;27.70;10.63;;;;;;;3.10;25.24;101630.31;5014415;28;20046;-72
2022/03/13 05:11:46;;;;;;;31.85;11.50;;;;;;;2.69;25.74;101618.59;5018168;28;20486;-72
2022/03/13 05:14:12;;;;;;;28.70;11.77;;;;;;;2.96;25.15;101624.91;5014299;28;20065;-72
2022/03/13 05:16:39;;;;;;;25.52;10.75;;;;;;;2.89;25.49;101629.75;5014836;28;20046;-72
2022/03/13 05:19:06;;;;;;;32.63;11.32;;;;;;;2.48;25.83;101637.38;5014746;28;20050;-73
2022/03/13 05:21:36;;;;;;;27.00;11.10;;;;;;;2.60;25.52;101631.38;5022163;28;20132;-73
2022/03/13 05:24:02;;;;;;;27.35;11.75;;;;;;;2.68;25.35;101623.00;5033530;28;20129;-72
2022/03/13 05:26:29;;;;;;;31.92;12.48;;;;;;;2.48;25.65;101632.09;5033773;28;20055;-72
2022/03/13 05:28:56;;;;;;;31.50;12.52;;;;;;;2.66;25.78;101627.56;5033965;28;20414;-70
2022/03/13 05:31:22;;;;;;;30.88;12.25;;;;;;;2.87;25.68;101626.31;5033329;28;20041;-72
2022/03/13 05:33:49;;;;;;;28.42;11.32;;;;;;;2.62;25.41;101620.72;5033469;28;20501;-72
2022/03/13 05:36:16;;;;;;;24.63;11.13;;;;;;;3.06;25.33;101636.69;5033468;28;20045;-72
2022/03/13 05:38:42;;;;;;;27.85;11.45;;;;;;;2.76;25.25;101636.69;5033333;28;20128;-72
2022/03/13 05:41:09;;;;;;;32.65;12.52;;;;;;;2.94;25.06;101639.22;5009620;28;20049;-72
2022/03/13 05:43:36;;;;;;;31.20;11.75;;;;;;;3.16;24.99;101644.97;5019191;28;20451;-72
2022/03/13 05:46:02;;;;;;;33.80;11.75;;;;;;;2.89;25.37;101648.31;5032929;28;20193;-73
2022/03/13 05:48:30;;;;;;;31.00;12.15;;;;;;;3.16;24.95;101644.97;5032720;28;20507;-72
2022/03/13 05:50:57;;;;;;;28.10;12.00;;;;;;;2.73;25.56;101651.91;5032790;28;20380;-72
2022/03/13 05:53:23;;;;;;;31.70;11.70;;;;;;;3.13;24.96;101650.47;5033466;28;20448;-72
2022/03/13 05:55:50;;;;;;;31.73;11.95;;;;;;;2.87;25.14;101655.47;5032090;28;20132;-72
2022/03/13 05:58:17;;;;;;;26.65;11.05;;;;;;;2.92;25.18;101652.56;5032471;28;20080;-72
2022/03/13 06:00:44;;;;;;;24.20;11.70;;;;;;;3.10;25.15;101666.53;5033464;28;20398;-72
2022/03/13 06:03:11;;;;;;;25.70;10.55;;;;;;;2.97;24.70;101654.97;5015036;28;20049;-72
2022/03/13 06:05:38;;;;;;;33.47;12.48;;;;;;;3.15;24.87;101664.50;5032953;28;20041;-72
2022/03/13 06:08:04;;;;;;;28.70;12.10;;;;;;;2.89;25.77;101664.22;5032717;28;20049;-72
2022/03/13 06:10:31;;;;;;;30.17;11.32;;;;;;;3.05;24.81;101663.31;5032077;28;20128;-72
2022/03/13 06:12:57;;;;;;;26.50;11.73;;;;;;;3.21;25.00;101658.84;5033681;28;20069;-72
2022/03/13 06:15:24;;;;;;;25.55;11.45;;;;;;;2.95;25.44;101655.03;5032460;28;20045;-72
2022/03/13 06:17:51;;;;;;;36.10;11.70;;;;;;;2.79;25.58;101663.03;5032424;28;20050;-72
2022/03/13 06:20:18;;;;;;;32.35;13.00;;;;;;;3.08;25.15;101663.13;5032827;28;20521;-72
2022/03/13 06:22:46;;;;;;;30.35;12.82;;;;;;;2.45;25.70;101658.75;5013865;28;20173;-72
2022/03/13 06:25:14;;;;;;;36.22;13.00;;;;;;;2.71;25.67;101674.97;5012720;28;20133;-72
2022/03/13 06:27:42;;;;;;;38.97;13.38;;;;;;;2.87;25.12;101671.38;5012799;28;20548;-72
2022/03/13 06:30:14;;;;;;;28.42;12.10;;;;;;;3.17;25.11;101678.53;5012538;28;20073;-71
2022/03/13 06:32:42;;;;;;;30.73;13.05;;;;;;;3.52;24.75;101676.47;5007969;28;20073;-73
2022/03/13 06:35:10;;;;;;;31.25;12.98;;;;;;;3.05;25.63;101680.06;5003814;28;20050;-73
2022/03/13 06:37:38;;;;;;;31.83;12.25;;;;;;;3.42;25.44;101683.25;4982520;28;20042;-73
2022/03/13 06:40:10;;;;;;;23.35;9.40;;;;;;;3.52;24.27;101679.09;4993146;28;20057;-73
2022/03/13 06:42:38;;;;;;;30.45;12.50;;;;;;;3.66;25.04;101675.63;4992791;28;20049;-73
2022/03/13 06:45:06;;;;;;;32.30;12.30;;;;;;;3.23;25.01;101688.75;4992416;28;20054;-73
2022/03/13 06:47:34;;;;;;;33.40;13.25;;;;;;;3.60;24.84;101676.00;4991199;28;20128;-73
2022/03/13 06:50:01;;;;;;;26.52;11.88;;;;;;;3.82;24.77;101673.75;4993592;28;20486;-73
2022/03/13 06:52:27;;;;;;;31.20;12.68;;;;;;;3.57;24.72;101681.47;5012590;28;20068;-73
2022/03/13 06:54:54;;;;;;;28.40;12.77;;;;;;;3.38;24.67;101671.97;5011540;28;20133;-73
2022/03/13 06:57:20;;;;;;;29.67;11.55;;;;;;;4.22;23.98;101681.94;5011946;28;20049;-73
2022/03/13 06:59:48;;;;;;;29.50;12.35;;;;;;;4.54;23.43;101679.94;5012782;28;20046;-73
2022/03/13 07:02:14;;;;;;;29.63;12.48;;;;;;;4.41;23.07;101675.47;5012165;28;20125;-73
2022/03/13 07:04:41;;;;;;;26.15;11.63;;;;;;;4.96;22.85;101674.59;5011922;28;20129;-73
2022/03/13 07:07:08;;;;;;;24.00;11.68;;;;;;;4.41;22.68;101668.34;5011932;28;20050;-73
2022/03/13 07:09:34;;;;;;;35.85;11.82;;;;;;;5.53;21.85;101674.34;5012074;28;20129;-73
2022/03/13 07:12:01;;;;;;;27.38;11.85;;;;;;;5.61;21.69;101663.16;5010633;28;20065;-73
2022/03/13 07:14:29;;;;;;;26.67;11.80;;;;;;;6.65;20.33;101670.00;5008638;28;20124;-73
2022/03/13 07:16:56;;;;;;;30.85;11.77;;;;;;;7.10;19.81;101662.25;5012635;28;20042;-74
2022/03/13 07:19:23;;;;;;;28.65;10.82;;;;;;;7.06;19.94;101673.28;5016561;28;20077;-72
2022/03/13 07:21:49;;;;;;;25.70;11.38;;;;;;;7.96;18.61;101669.06;5026332;28;20077;-72
2022/03/13 07:24:15;;;;;;;26.40;11.10;;;;;;;8.21;18.60;101667.16;5013350;28;20562;-73
2022/03/13 07:26:42;;;;;;;24.33;11.90;;;;;;;8.17;18.24;101660.34;5013421;28;20486;-72
2022/03/13 07:29:08;;;;;;;27.45;11.15;;;;;;;7.99;18.54;101660.81;5031519;28;20136;-72
2022/03/13 07:31:35;;;;;;;27.00;10.75;;;;;;;8.98;17.63;101653.75;5031489;28;20512;-73
2022/03/13 07:34:02;;;;;;;25.98;12.30;;;;;;;8.14;17.89;101661.44;5032128;28;20068;-73
2022/03/13 07:36:28;;;;;;;23.98;11.25;;;;;;;10.18;16.48;101660.50;5028959;28;20053;-72
2022/03/13 07:38:55;;;;;;;25.50;11.43;;;;;;;10.06;16.12;101661.56;5032144;28;20469;-72
2022/03/13 07:41:21;;;;;;;27.25;10.40;;;;;;;9.41;16.75;101658.25;5031383;28;20136;-72
2022/03/13 07:43:48;;;;;;;22.45;10.48;;;;;;;8.50;17.46;101654.09;5031085;28;20048;-72
2022/03/13 07:46:14;;;;;;;22.38;11.13;;;;;;;10.11;16.19;101656.66;5030673;28;20083;-72
2022/03/13 07:48:44;;;;;;;23.70;11.20;;;;;;;10.28;15.69;101664.09;5031671;28;20037;-72
2022/03/13 07:51:12;;;;;;;24.33;10.30;;;;;;;10.11;15.73;101659.34;5031130;28;20052;-72
2022/03/13 07:53:38;;;;;;;24.23;11.27;;;;;;;10.34;15.86;101658.19;5030389;28;20397;-72
2022/03/13 07:56:05;;;;;;;22.73;10.57;;;;;;;9.35;16.67;101653.41;5030986;28;20132;-72
2022/03/13 07:58:32;;;;;;;20.80;11.38;;;;;;;9.91;16.18;101659.25;5031707;28;20053;-72
2022/03/13 08:00:59;;;;;;;20.98;10.93;;;;;;;9.71;16.33;101660.13;5031347;28;20119;-73
2022/03/13 08:03:30;;;;;;;20.13;10.27;;;;;;;9.78;15.90;101647.88;5031838;28;20049;-73
2022/03/13 08:05:56;;;;;;;26.17;11.82;;;;;;;10.35;15.64;101657.19;5030471;28;20136;-73
2022/03/13 08:08:23;;;;;;;26.17;11.27;;;;;;;10.20;15.70;101653.16;5031959;28;20124;-73
2022/03/13 08:10:49;;;;;;;22.50;10.55;;;;;;;9.87;16.03;101657.81;5029932;28;20442;-73
2022/03/13 08:13:16;;;;;;;21.52;11.25;;;;;;;10.70;15.19;101653.22;5021869;28;20119;-73
2022/03/13 08:15:42;;;;;;;20.00;9.90;;;;;;;10.50;15.06;101647.78;5015722;28;20049;-73
2022/03/13 08:18:10;;;;;;;20.25;10.52;;;;;;;10.90;14.82;101663.00;5029976;28;20080;-73
2022/03/13 08:20:37;;;;;;;21.25;10.40;;;;;;;11.33;15.11;101651.00;5030293;28;20133;-73
2022/03/13 08:23:04;;;;;;;17.58;9.90;;;;;;;11.84;14.10;101648.97;5034162;28;20124;-72
2022/03/13 08:25:30;;;;;;;19.75;10.63;;;;;;;11.54;14.42;101652.66;5035436;28;20130;-74
2022/03/13 08:27:57;;;;;;;20.58;9.60;;;;;;;12.72;13.50;101652.94;5034445;28;20084;-73
2022/03/13 08:30:24;;;;;;;20.33;10.05;;;;;;;11.35;14.23;101653.56;5034199;28;20136;-72
2022/03/13 08:32:50;;;;;;;18.52;9.82;;;;;;;12.36;13.51;101649.31;5034685;28;20481;-72
2022/03/13 08:35:17;;;;;;;21.23;10.23;;;;;;;12.00;13.84;101653.72;5033695;28;20052;-73
2022/03/13 08:37:44;;;;;;;21.10;10.52;;;;;;;11.85;13.80;101646.13;5033803;28;20133;-72
2022/03/13 08:40:12;;;;;;;21.27;11.38;;;;;;;11.92;13.89;101641.84;5021645;28;20084;-72
2022/03/13 08:42:38;;;;;;;21.08;9.93;;;;;;;11.12;14.25;101647.63;5034693;28;20057;-73
2022/03/13 08:45:05;;;;;;;18.45;9.95;;;;;;;10.98;14.49;101636.28;5035095;28;20136;-74
2022/03/13 08:47:32;;;;;;;18.13;10.18;;;;;;;10.68;14.77;101641.75;5035406;28;20132;-72
2022/03/13 08:49:58;;;;;;;20.80;9.98;;;;;;;11.41;14.29;101635.03;5034949;28;20047;-72
2022/03/13 08:52:25;;;;;;;19.52;9.35;;;;;;;11.13;14.50;101636.72;5035071;28;20124;-73
2022/03/13 08:54:51;;;;;;;21.20;10.77;;;;;;;12.63;13.10;101626.94;5031482;28;20134;-73
2022/03/13 08:57:18;;;;;;;23.60;10.70;;;;;;;13.05;12.80;101629.91;5027125;28;20465;-73
2022/03/13 08:59:44;;;;;;;18.60;9.70;;;;;;;13.32;12.63;101628.97;5014103;28;20038;-73
2022/03/13 09:02:11;;;;;;;18.70;9.35;;;;;;;13.42;12.44;101630.72;5014858;28;20087;-73
2022/03/13 09:04:37;;;;;;;19.45;8.43;;;;;;;12.09;13.12;101634.00;5013705;28;20046;-73
2022/03/13 09:07:04;;;;;;;19.58;9.60;;;;;;;13.35;12.52;101633.19;5014354;28;20076;-73
2022/03/13 09:09:30;;;;;;;20.35;9.40;;;;;;;12.10;13.13;101627.63;5014912;28;20045;-73
2022/03/13 09:12:02;;;;;;;18.95;9.07;;;;;;;13.25;12.44;101630.59;5015303;28;20053;-73
2022/03/13 09:14:29;;;;;;;18.55;9.48;;;;;;;13.67;11.98;101624.50;4997702;28;20379;-73
2022/03/13 09:16:55;;;;;;;18.15;9.25;;;;;;;12.81;12.27;101635.91;5016337;28;20486;-73
2022/03/13 09:19:22;;;;;;;17.20;8.63;;;;;;;11.83;13.14;101636.50;5014274;28;20080;-73
2022/03/13 09:21:48;;;;;;;19.10;9.38;;;;;;;12.78;12.41;101627.28;5014279;28;20078;-73
2022/03/13 09:24:15;;;;;;;19.13;8.75;;;;;;;13.06;12.30;101630.75;5014500;28;20104;-73
2022/03/13 09:26:43;;;;;;;20.50;10.00;;;;;;;14.04;12.53;101629.63;5015066;28;20041;-72
2022/03/13 09:29:09;;;;;;;18.98;9.32;;;;;;;12.68;14.20;101630.00;5013696;28;20050;-71
2022/03/13 09:31:36;;;;;;;19.50;9.05;;;;;;;13.63;13.40;101623.13;5017655;28;20042;-70
2022/03/13 09:34:03;;;;;;;16.40;8.80;;;;;;;13.22;13.08;101624.69;5030798;28;20111;-71
2022/03/13 09:36:29;;;;;;;18.20;8.98;;;;;;;13.46;13.29;101637.50;5014502;28;20121;-71
2022/03/13 09:38:56;;;;;;;17.90;8.77;;;;;;;13.58;13.67;101628.97;5018537;28;20069;-70
2022/03/13 09:41:23;;;;;;;16.38;8.82;;;;;;;14.38;13.81;101633.31;5033768;28;20132;-70
2022/03/13 09:43:49;;;;;;;17.25;8.75;;;;;;;14.47;12.65;101624.25;5034428;28;20060;-70
2022/03/13 09:46:16;;;;;;;15.50;8.18;;;;;;;13.97;12.53;101627.72;5033087;28;20512;-70
2022/03/13 09:48:43;;;;;;;18.75;9.27;;;;;;;14.46;12.55;101626.09;5033942;28;20095;-70
2022/03/13 09:51:09;;;;;;;20.17;10.07;;;;;;;14.23;12.51;101635.81;5034335;28;20045;-70
2022/03/13 09:53:37;;;;;;;18.95;8.52;;;;;;;14.77;12.34;101637.19;5033582;28;20042;-70
2022/03/13 09:56:05;;;;;;;17.77;9.57;;;;;;;14.21;12.06;101630.53;5022198;28;20157;-69
2022/03/13 09:58:32;;;;;;;17.17;9.15;;;;;;;14.58;13.31;101629.34;5017236;28;20069;-70
2022/03/13 10:00:59;;;;;;;14.35;8.35;;;;;;;15.14;12.19;101616.97;5032183;28;20060;-69
2022/03/13 10:03:26;;;;;;;21.33;8.65;;;;;;;15.70;12.17;101617.94;5032409;28;20397;-69
2022/03/13 10:05:58;;;;;;;18.35;9.02;;;;;;;14.70;12.18;101619.06;5032809;28;20049;-70
2022/03/13 10:08:29;;;;;;;17.92;9.05;;;;;;;13.24;12.19;101626.19;5033214;28;20049;-72
2022/03/13 10:10:56;;;;;;;;;;;;;;;14.20;11.70;101619.94;5032954;28;20112;-72
2022/03/13 10:13:41;;;;;;;20.70;10.07;;;;;;;15.35;11.20;101615.59;5031530;28;19960;-72
2022/03/13 10:16:15;;;;;;;19.20;9.23;;;;;;;14.83;11.53;101618.63;5032306;28;20045;-71
2022/03/13 10:18:41;;;;;;;16.95;9.60;;;;;;;15.14;11.00;101608.84;5032315;28;20041;-72
2022/03/13 10:21:12;;;;;;;22.10;10.98;;;;;;;15.21;11.06;101606.31;5019794;28;20208;-72
2022/03/13 10:23:41;;;;;;;15.93;9.20;;;;;;;14.80;11.30;101602.75;5027674;28;20120;-73
2022/03/13 10:26:08;;;;;;;15.55;9.07;;;;;;;14.22;11.74;101607.09;5012589;28;20073;-73
2022/03/13 10:28:37;;;;;;;16.38;9.07;;;;;;;15.10;11.46;101603.97;4995160;28;20518;-72
2022/03/13 10:31:17;;;;;;;14.85;8.20;;;;;;;14.51;11.40;101590.50;4995338;28;20046;-73
2022/03/13 10:33:56;;;;;;;14.32;7.75;;;;;;;13.69;11.63;101600.91;4991725;28;20378;-72
2022/03/13 10:36:31;;;;;;;16.20;8.70;;;;;;;15.30;10.97;101586.38;5006107;28;20046;-73
2022/03/13 10:39:00;;;;;;;16.83;7.88;;;;;;;14.56;11.27;101587.31;4992661;28;20049;-73
2022/03/13 10:41:45;;;;;;;15.63;7.88;;;;;;;15.37;11.07;101586.56;4993032;28;20130;-72
2022/03/13 10:44:17;;;;;;;14.05;8.10;;;;;;;14.84;10.96;101580.63;5010785;28;20435;-72
2022/03/13 10:46:46;;;;;;;15.50;8.02;;;;;;;15.28;11.11;101582.16;5012858;28;20042;-71
2022/03/13 10:49:13;;;;;;;11.57;6.45;;;;;;;15.13;10.51;101572.03;5012154;28;20046;-72
2022/03/13 10:51:45;;;;;;;16.63;6.55;;;;;;;14.47;10.28;101589.16;5013597;28;20041;-71
2022/03/13 10:54:46;;;;;;;15.95;5.95;;;;;;;14.76;9.78;101581.47;4996423;28;20101;-72
2022/03/13 10:57:13;;;;;;;7.47;4.95;;;;;;;14.06;9.53;101589.84;4995100;28;20475;-71
2022/03/13 10:59:41;;;;;;;12.18;6.78;;;;;;;14.84;9.59;101574.38;5012029;28;20070;-74
2022/03/13 11:02:15;;;;;;;15.50;6.45;;;;;;;15.19;9.42;101576.75;5009200;28;20449;-75
2022/03/13 11:04:49;;;;;;;14.77;7.85;;;;;;;15.29;9.75;101573.03;5005651;28;20470;-74
2022/03/13 11:07:16;;;;;;;13.65;5.78;;;;;;;15.56;9.55;101567.22;5012261;28;20096;-74
2022/03/13 11:09:43;;;;;;;13.50;6.95;;;;;;;15.50;9.94;101570.66;5012099;28;20450;-74
2022/03/13 11:12:20;;;;;;;11.40;6.22;;;;;;;15.83;9.93;101555.19;5011930;28;20072;-74
2022/03/13 11:14:49;;;;;;;14.48;6.93;;;;;;;15.89;10.41;101562.63;5012437;28;20099;-74
2022/03/13 11:17:18;;;;;;;10.88;6.03;;;;;;;15.52;10.37;101560.47;5010458;28;20485;-74
2022/03/13 11:19:49;;;;;;;11.85;6.47;;;;;;;14.68;10.56;101562.53;5012720;28;20056;-74
2022/03/13 11:22:17;;;;;;;13.63;6.45;;;;;;;14.95;10.63;101550.59;5015258;28;20545;-74